CheckWX is a tool to help pilots better visualize weather data.  It is not intended as a substitute for an official pre-flight weather briefing.

00:36:21 UTC

CWWU METAR
Ingenika Point Airport
Long Pond, Canada
Current

5 hours ago

CWWU 201949Z VRB02KT 3/4SM -DZ BR SCT009 OVC014 05/05 A3016 RMK FG1SF3SC4 LAST OBS/NXT 210700Z SLP216
Observed
Apr-20 @ 19:49 UTC
Wind
  • Variable at 2 KTS
Visibility
3/4 SM
Flight Rules
LIFR
Conditions
Light Drizzle, Mist
Cloud Levels
  • Scattered at 900' AGL
  • Overcast at 1,400' AGL
Temperature
C / 41°F
Dewpoint
C / 41°F
Humidity
100%
Altimeter
30.16" Hg
Pressure
1021.32 hPa
Previous

6 hours ago

CWWU 201900Z 00000KT 8SM -RA FEW008 OVC017 06/06 A3018 RMK SF2SC6 SLP221
Observed
Apr-20 @ 19:00 UTC
Visibility
8 SM
Flight Rules
MVFR
Conditions
Light Rain
Cloud Levels
  • Few at 800' AGL
  • Overcast at 1,700' AGL
Temperature
C / 43°F
Dewpoint
C / 43°F
Humidity
100%
Altimeter
30.18" Hg
Pressure
1022.02 hPa
Previous

7 hours ago

CWWU 201800Z VRB02KT 5SM -RA BR BKN015 OVC032 06/06 A3017 RMK SC6SC2 SLP218
Observed
Apr-20 @ 18:00 UTC
Wind
  • Variable at 2 KTS
Visibility
5 SM
Flight Rules
MVFR
Conditions
Light Rain, Mist
Cloud Levels
  • Broken at 1,500' AGL
  • Overcast at 3,200' AGL
Temperature
C / 43°F
Dewpoint
C / 43°F
Humidity
100%
Altimeter
30.17" Hg
Pressure
1021.72 hPa